Time;durP1;ratioP1;P1;durP2;ratioP2;P2;SDS_P1;SDS_P2;PMS_P1;PMS_P2;Temp;Humidity;BMP_temperature;BMP_pressure;BME280_temperature;BME280_humidity;BME280_pressure;Samples;Min_cycle;Max_cycle;Signal;HPM_P1;HPM_P2
2023/01/07 00:03:00;;;;;;;14.87;8.52;;;;;;;8.55;61.69;100373.47;7695979;32;36690;-85
2023/01/07 00:07:19;;;;;;;17.58;8.23;;;;;;;8.68;61.32;100377.78;7696126;32;40477;-85
2023/01/07 00:11:37;;;;;;;18.98;8.38;;;;;;;8.71;61.45;100381.88;7709314;32;40626;-84
2023/01/07 00:16:01;;;;;;;18.95;9.05;;;;;;;8.65;61.65;100384.50;7709402;32;39121;-86
2023/01/07 00:20:17;;;;;;;19.37;9.90;;;;;;;8.76;61.35;100380.09;7709472;32;37816;-85
2023/01/07 00:24:33;;;;;;;22.35;10.60;;;;;;;8.83;61.09;100390.81;7708678;32;40070;-85
2023/01/07 00:28:51;;;;;;;20.40;10.63;;;;;;;8.76;61.12;100388.25;7709552;32;40038;-85
2023/01/07 00:33:10;;;;;;;25.92;11.52;;;;;;;8.88;60.83;100387.34;7688167;32;37728;-85
2023/01/07 00:46:39;;;;;;;19.35;10.93;;;;;;;8.97;60.36;100394.06;7682273;32;40005;-85
2023/01/07 00:50:57;;;;;;;22.70;10.75;;;;;;;8.96;60.43;100390.50;7689043;32;37949;-85
2023/01/07 00:55:14;;;;;;;21.35;11.50;;;;;;;8.92;60.84;100405.66;7695453;32;36909;-85
2023/01/07 00:59:30;;;;;;;25.60;10.77;;;;;;;8.97;60.06;100411.19;7712609;32;39966;-85
2023/01/07 01:03:46;;;;;;;18.15;9.90;;;;;;;9.20;59.51;100409.38;7687394;32;40886;-85
2023/01/07 01:08:02;;;;;;;22.15;11.25;;;;;;;9.14;59.80;100407.63;7685805;32;38073;-85
2023/01/07 01:12:19;;;;;;;18.92;10.00;;;;;;;8.99;60.15;100414.47;7694565;32;37055;-86
2023/01/07 01:16:36;;;;;;;22.20;9.25;;;;;;;9.33;59.23;100400.88;7685735;32;40049;-85
2023/01/07 01:20:53;;;;;;;19.00;9.07;;;;;;;9.09;59.93;100421.16;7702114;32;40044;-85
2023/01/07 01:25:10;;;;;;;18.65;8.77;;;;;;;9.12;59.93;100417.94;7698857;32;36437;-85
2023/01/07 01:29:27;;;;;;;16.12;8.70;;;;;;;9.13;60.04;100420.41;7697895;32;36949;-85
2023/01/07 01:33:43;;;;;;;21.02;8.85;;;;;;;9.09;60.33;100413.84;7712081;32;39985;-85
2023/01/07 01:38:00;;;;;;;21.42;8.63;;;;;;;9.35;59.93;100408.81;7712144;32;40003;-85
2023/01/07 01:42:22;;;;;;;18.45;9.10;;;;;;;9.24;60.38;100405.09;7686718;32;37793;-85
2023/01/07 01:46:43;;;;;;;18.35;9.35;;;;;;;9.08;61.12;100414.91;7685524;32;37148;-85
2023/01/07 01:51:01;;;;;;;18.48;9.60;;;;;;;9.43;60.37;100408.38;7702104;32;39303;-85
2023/01/07 01:55:22;;;;;;;18.48;9.63;;;;;;;9.75;59.29;100394.94;7711869;32;40872;-86
2023/01/07 01:59:42;;;;;;;20.10;9.43;;;;;;;9.66;59.72;100392.91;7677614;32;37909;-85
2023/01/07 02:04:00;;;;;;;16.35;8.23;;;;;;;9.77;59.41;100391.97;7672079;32;37007;-85
2023/01/07 02:08:20;;;;;;;15.75;8.98;;;;;;;9.74;59.22;100387.88;7671190;32;39972;-85
2023/01/07 02:12:49;;;;;;;17.25;8.98;;;;;;;9.62;59.14;100380.88;7658793;32;39935;-85
2023/01/07 02:17:14;;;;;;;20.65;9.68;;;;;;;9.91;58.33;100373.38;7658673;32;38248;-85
2023/01/07 02:21:37;;;;;;;17.85;9.35;;;;;;;9.65;59.21;100361.31;7698178;32;37046;-85
2023/01/07 02:26:21;;;;;;;14.93;9.20;;;;;;;9.76;58.89;100363.94;7710097;32;40115;-84
2023/01/07 02:31:09;;;;;;;17.90;9.63;;;;;;;9.80;58.81;100361.53;7698301;32;39608;-85
2023/01/07 02:35:28;;;;;;;16.90;9.30;;;;;;;9.90;58.72;100355.37;7711106;32;38673;-84
2023/01/07 02:39:49;;;;;;;23.58;10.90;;;;;;;9.73;59.37;100366.34;7703059;32;35341;-86
2023/01/07 02:44:35;;;;;;;18.45;9.38;;;;;;;9.51;60.26;100361.69;7685186;32;38363;-85
2023/01/07 02:48:51;;;;;;;23.48;10.48;;;;;;;9.66;60.00;100358.34;7687013;32;41316;-85
2023/01/07 02:53:10;;;;;;;16.90;9.55;;;;;;;9.60;59.98;100367.50;7711508;32;37599;-85
2023/01/07 02:57:51;;;;;;;16.12;10.02;;;;;;;9.54;60.39;100368.53;7698208;32;35675;-86
2023/01/07 03:02:18;;;;;;;21.55;10.07;;;;;;;9.78;59.97;100360.97;7688292;32;39233;-85
2023/01/07 03:07:12;;;;;;;21.40;10.82;;;;;;;9.43;61.27;100364.00;7684491;32;39973;-85
2023/01/07 03:11:41;;;;;;;19.85;11.52;;;;;;;9.51;61.14;100378.00;7702660;32;38823;-86
2023/01/07 03:16:03;;;;;;;20.02;10.77;;;;;;;9.48;61.14;100366.81;7698218;32;37936;-86
2023/01/07 03:20:23;;;;;;;21.75;10.90;;;;;;;9.54;60.81;100361.19;7674644;32;39987;-85
2023/01/07 03:24:39;;;;;;;19.58;10.45;;;;;;;9.39;61.26;100359.06;7695632;32;40808;-85
2023/01/07 03:28:58;;;;;;;20.40;10.63;;;;;;;9.59;60.34;100355.81;7696721;32;37864;-86
2023/01/07 03:33:44;;;;;;;17.35;11.00;;;;;;;9.53;60.21;100345.91;7710643;32;35520;-85
2023/01/07 03:38:02;;;;;;;21.23;10.82;;;;;;;9.37;60.72;100357.69;7691099;32;40230;-86
2023/01/07 03:42:39;;;;;;;19.95;11.40;;;;;;;9.22;60.85;100355.53;7696733;32;40209;-86
2023/01/07 03:46:56;;;;;;;21.92;11.15;;;;;;;9.26;60.85;100356.72;7710036;32;37870;-86
2023/01/07 03:51:15;;;;;;;22.02;10.73;;;;;;;9.34;60.24;100348.09;7696578;32;37079;-85
2023/01/07 03:55:31;;;;;;;21.08;11.25;;;;;;;9.44;59.92;100343.91;7709785;32;39264;-86
2023/01/07 03:59:47;;;;;;;20.23;11.00;;;;;;;9.44;59.91;100352.06;7709025;32;39981;-85
2023/01/07 04:04:04;;;;;;;20.02;10.88;;;;;;;9.21;60.69;100349.28;7709751;32;38543;-85
2023/01/07 04:08:20;;;;;;;20.92;10.45;;;;;;;9.30;60.32;100349.69;7709466;32;37870;-85
2023/01/07 04:12:36;;;;;;;17.98;10.65;;;;;;;9.19;60.59;100348.72;7709467;32;40034;-85
2023/01/07 04:16:52;;;;;;;18.52;10.50;;;;;;;9.35;60.57;100349.75;7709095;32;40910;-86
2023/01/07 04:21:09;;;;;;;21.08;10.50;;;;;;;9.23;61.19;100357.19;7709396;32;38746;-85
2023/01/07 04:25:25;;;;;;;20.12;11.05;;;;;;;9.14;61.51;100358.66;7709035;32;37093;-85
2023/01/07 04:29:41;;;;;;;19.02;10.18;;;;;;;8.94;61.79;100360.00;7684140;32;37510;-85
2023/01/07 04:33:59;;;;;;;18.45;10.75;;;;;;;8.82;61.81;100351.91;7686206;32;40881;-85
2023/01/07 04:38:15;;;;;;;21.50;11.07;;;;;;;8.97;61.65;100358.69;7703880;32;38771;-85
2023/01/07 04:42:31;;;;;;;17.75;11.43;;;;;;;8.97;61.57;100356.78;7712979;32;37360;-85
2023/01/07 04:46:51;;;;;;;21.27;10.30;;;;;;;9.18;61.00;100360.66;7712571;32;39139;-85
2023/01/07 04:51:07;;;;;;;18.77;10.75;;;;;;;9.07;61.13;100366.19;7712663;32;39881;-85
2023/01/07 04:55:23;;;;;;;21.55;11.30;;;;;;;8.78;62.15;100363.56;7712222;32;38047;-85
2023/01/07 04:59:39;;;;;;;21.58;10.55;;;;;;;8.82;62.20;100357.34;7712637;32;37101;-85
2023/01/07 05:03:56;;;;;;;21.42;11.15;;;;;;;8.79;62.47;100357.03;7712247;32;39002;-85
2023/01/07 05:08:12;;;;;;;20.20;10.90;;;;;;;8.73;62.49;100352.59;7712506;32;40888;-85
2023/01/07 05:12:35;;;;;;;22.00;10.85;;;;;;;8.40;62.92;100354.12;7712416;32;36559;-85
2023/01/07 05:16:53;;;;;;;16.10;9.32;;;;;;;8.40;62.13;100359.56;7712081;32;37240;-85
2023/01/07 05:21:10;;;;;;;20.33;10.02;;;;;;;8.52;60.71;100356.81;7712134;32;38432;-86
2023/01/07 05:25:26;;;;;;;22.17;11.10;;;;;;;8.31;60.94;100348.25;7710901;32;40045;-84
2023/01/07 05:29:43;;;;;;;19.00;10.98;;;;;;;8.20;61.88;100349.16;7712038;32;37976;-86
2023/01/07 05:33:59;;;;;;;18.73;10.45;;;;;;;7.99;62.31;100353.38;7711963;32;37081;-86
2023/01/07 05:38:15;;;;;;;19.67;10.68;;;;;;;8.11;62.12;100354.16;7712023;32;39341;-85
2023/01/07 05:42:35;;;;;;;18.92;10.48;;;;;;;8.20;60.93;100349.97;7711187;32;38507;-86
2023/01/07 05:46:51;;;;;;;20.42;9.93;;;;;;;7.86;61.71;100354.44;7712024;32;38199;-85
2023/01/07 05:51:07;;;;;;;20.77;11.02;;;;;;;7.96;61.47;100368.22;7711889;32;36939;-85
2023/01/07 05:55:24;;;;;;;22.55;11.35;;;;;;;7.93;61.64;100365.16;7698099;32;38967;-83
2023/01/07 05:59:40;;;;;;;23.83;13.18;;;;;;;7.96;61.76;100359.28;7711558;32;39917;-85
2023/01/07 06:03:59;;;;;;;22.42;11.93;;;;;;;7.80;63.19;100363.56;7697309;32;37957;-85
2023/01/07 06:08:15;;;;;;;21.33;12.35;;;;;;;7.77;63.59;100358.59;7711871;32;37856;-86
2023/01/07 06:12:32;;;;;;;25.15;12.90;;;;;;;7.86;63.38;100355.28;7711284;32;39303;-85
2023/01/07 06:16:49;;;;;;;23.95;13.98;;;;;;;7.88;63.79;100358.59;7711600;32;39881;-85
2023/01/07 06:21:05;;;;;;;22.92;12.48;;;;;;;7.93;64.63;100355.13;7711287;32;38718;-85
2023/01/07 06:25:21;;;;;;;26.42;13.68;;;;;;;7.85;64.93;100347.38;7707193;32;38323;-85
2023/01/07 06:29:38;;;;;;;22.65;11.82;;;;;;;8.08;63.70;100341.03;7710827;32;38994;-82
2023/01/07 06:33:54;;;;;;;21.60;12.57;;;;;;;7.91;63.54;100349.13;7711436;32;39803;-84
2023/01/07 06:38:10;;;;;;;24.90;12.40;;;;;;;7.94;63.13;100342.41;7711399;32;38861;-84
2023/01/07 06:42:27;;;;;;;23.17;11.75;;;;;;;8.19;62.13;100352.91;7711449;32;37204;-86
2023/01/07 06:46:43;;;;;;;27.02;13.60;;;;;;;7.93;62.84;100340.75;7710582;32;40057;-85
2023/01/07 06:50:59;;;;;;;22.98;13.38;;;;;;;8.09;62.91;100351.66;7711045;32;40781;-84
2023/01/07 06:55:16;;;;;;;24.55;13.70;;;;;;;7.92;64.36;100364.34;7710409;32;37608;-85
2023/01/07 06:59:32;;;;;;;25.58;13.98;;;;;;;7.80;64.84;100360.84;7708767;32;37277;-86
2023/01/07 07:03:48;;;;;;;23.52;11.48;;;;;;;7.09;64.87;100380.69;7710722;32;39113;-85
2023/01/07 07:08:05;;;;;;;23.55;11.63;;;;;;;7.27;63.66;100368.91;7710869;32;41018;-86
2023/01/07 07:12:21;;;;;;;21.00;12.57;;;;;;;7.32;63.66;100374.44;7707452;32;39283;-85
2023/01/07 07:16:38;;;;;;;22.48;12.85;;;;;;;7.41;64.08;100379.53;7706685;32;36844;-86
2023/01/07 07:20:54;;;;;;;21.83;12.77;;;;;;;7.59;64.18;100379.41;7707171;32;40106;-86
2023/01/07 07:25:10;;;;;;;23.40;13.38;;;;;;;7.67;64.56;100383.63;7705948;32;128141;-85
2023/01/07 07:29:26;;;;;;;23.92;13.25;;;;;;;7.90;64.32;100389.03;7710374;32;38700;-86
2023/01/07 07:33:43;;;;;;;20.60;12.30;;;;;;;7.85;64.51;100391.62;7710625;32;37130;-86
2023/01/07 07:37:59;;;;;;;20.25;11.48;;;;;;;7.95;64.18;100384.75;7710497;32;39298;-85
2023/01/07 07:42:15;;;;;;;21.98;12.70;;;;;;;7.98;64.68;100387.81;7710419;32;40184;-84
2023/01/07 07:46:31;;;;;;;21.73;10.82;;;;;;;8.17;64.69;100393.91;7710300;32;38065;-86
2023/01/07 07:50:50;;;;;;;18.77;10.80;;;;;;;8.55;64.18;100400.63;7696496;32;36810;-86
2023/01/07 07:55:09;;;;;;;21.33;10.63;;;;;;;8.52;64.81;100393.00;7710118;32;40050;-86
2023/01/07 07:59:41;;;;;;;22.60;11.68;;;;;;;8.79;64.12;100389.66;7709915;32;40933;-86
2023/01/07 08:03:57;;;;;;;19.92;11.12;;;;;;;8.77;63.88;100392.63;7709963;32;38043;-86
2023/01/07 08:08:16;;;;;;;19.45;11.38;;;;;;;8.86;63.79;100393.03;7713283;32;37402;-85
2023/01/07 08:12:35;;;;;;;17.98;11.95;;;;;;;8.95;63.68;100393.44;7699705;32;39295;-85
2023/01/07 08:16:51;;;;;;;19.92;12.00;;;;;;;9.43;62.26;100388.50;7713009;32;40023;-86
2023/01/07 08:21:07;;;;;;;24.40;13.77;;;;;;;9.34;62.39;100386.19;7713000;32;38756;-82
2023/01/07 08:25:24;;;;;;;23.50;12.93;;;;;;;9.26;61.71;100383.91;7712890;32;36900;-84
2023/01/07 08:29:49;;;;;;;24.37;13.27;;;;;;;9.05;61.07;100384.66;7712984;32;40167;-85
2023/01/07 08:34:06;;;;;;;24.77;12.95;;;;;;;9.00;61.29;100383.50;7712893;32;40593;-77
2023/01/07 08:38:23;;;;;;;23.98;12.40;;;;;;;9.12;61.64;100388.84;7712702;32;37989;-78
2023/01/07 08:42:40;;;;;;;19.70;11.90;;;;;;;9.26;61.77;100383.91;7712765;32;37005;-80
2023/01/07 08:46:56;;;;;;;20.17;12.20;;;;;;;9.38;62.83;100381.06;7712720;32;40224;-78
2023/01/07 08:51:13;;;;;;;23.90;13.95;;;;;;;9.41;62.32;100380.59;7712586;32;40832;-85
2023/01/07 08:55:29;;;;;;;21.35;13.13;;;;;;;9.65;62.88;100375.75;7712358;32;38673;-85
2023/01/07 08:59:49;;;;;;;28.00;15.18;;;;;;;9.84;62.26;100376.28;7712653;32;37400;-84
2023/01/07 09:04:06;;;;;;;25.42;14.75;;;;;;;9.87;61.65;100377.69;7712558;32;39793;-85
2023/01/07 09:08:24;;;;;;;24.33;15.57;;;;;;;10.05;60.99;100385.53;7712509;32;39945;-85
2023/01/07 09:12:40;;;;;;;26.30;15.20;;;;;;;9.91;61.21;100384.25;7713114;32;38858;-85
2023/01/07 09:16:59;;;;;;;27.67;16.62;;;;;;;10.30;60.57;100387.72;7711434;32;37077;-85
2023/01/07 09:21:16;;;;;;;24.48;15.30;;;;;;;10.32;60.54;100379.34;7712288;32;39390;-85
2023/01/07 09:25:32;;;;;;;24.50;14.95;;;;;;;10.38;61.08;100382.94;7712058;32;39915;-85
2023/01/07 09:29:49;;;;;;;23.90;14.75;;;;;;;10.62;60.24;100381.53;7711874;32;38017;-85
2023/01/07 09:34:05;;;;;;;22.25;13.52;;;;;;;10.71;59.57;100371.03;7712295;32;35156;-87
2023/01/07 09:38:22;;;;;;;23.67;13.82;;;;;;;11.17;59.19;100359.66;7711429;32;39927;-85
2023/01/07 09:42:57;;;;;;;23.38;13.73;;;;;;;11.55;58.21;100353.06;7711796;32;39833;-85
2023/01/07 09:47:17;;;;;;;23.27;13.65;;;;;;;11.71;57.44;100355.87;7699939;32;38838;-85
2023/01/07 09:51:37;;;;;;;21.12;13.30;;;;;;;12.10;57.04;100344.59;7698265;32;37265;-85
2023/01/07 09:55:56;;;;;;;21.50;12.68;;;;;;;12.29;55.55;100340.28;7711616;32;39069;-85
2023/01/07 10:00:28;;;;;;;19.60;12.25;;;;;;;12.56;55.32;100333.78;7711512;32;40029;-84
2023/01/07 10:05:12;;;;;;;21.98;13.02;;;;;;;12.91;54.42;100326.69;7711439;32;38192;-85
2023/01/07 10:09:44;;;;;;;22.45;13.43;;;;;;;13.17;53.97;100315.72;7700152;32;37167;-85
2023/01/07 10:14:15;;;;;;;25.05;14.05;;;;;;;13.36;54.01;100314.06;7711523;32;40078;-85
2023/01/07 10:18:56;;;;;;;26.42;16.08;;;;;;;13.51;53.12;100319.50;7698410;32;39700;-85
2023/01/07 10:23:18;;;;;;;27.70;16.30;;;;;;;13.39;52.08;100313.50;7711045;32;38692;-85
2023/01/07 10:27:38;;;;;;;27.08;16.00;;;;;;;12.86;52.26;100310.25;7697202;32;37634;-84
2023/01/07 10:31:57;;;;;;;26.73;16.08;;;;;;;13.49;52.39;100301.72;7697983;32;39160;-84
2023/01/07 10:36:19;;;;;;;26.20;15.45;;;;;;;13.53;51.49;100292.62;7697494;32;39102;-84
2023/01/07 10:41:02;;;;;;;26.98;15.27;;;;;;;13.39;52.69;100286.12;7711010;32;38134;-85
2023/01/07 10:45:30;;;;;;;27.77;15.30;;;;;;;13.61;51.57;100295.91;7711082;32;37208;-84
2023/01/07 10:50:10;;;;;;;23.80;13.50;;;;;;;14.24;51.60;100282.41;7658161;32;39415;-85
2023/01/07 10:55:04;;;;;;;25.88;14.68;;;;;;;14.45;49.84;100279.53;7658137;32;39957;-85
2023/01/07 10:59:23;;;;;;;22.37;13.90;;;;;;;14.77;48.75;100270.00;7657933;32;38136;-84
2023/01/07 11:03:40;;;;;;;21.87;13.30;;;;;;;14.62;48.41;100273.66;7644525;32;37162;-85
2023/01/07 11:07:58;;;;;;;23.30;13.82;;;;;;;14.92;50.01;100256.12;7657774;32;39884;-85
2023/01/07 11:12:39;;;;;;;18.65;9.45;;;;;;;15.35;49.56;100247.97;7657896;32;40037;-85
2023/01/07 11:17:14;;;;;;;17.98;10.13;;;;;;;15.83;47.10;100235.31;7657661;32;38414;-85
2023/01/07 11:21:35;;;;;;;20.80;11.88;;;;;;;15.34;46.50;100240.84;7657723;32;37287;-85
2023/01/07 11:26:24;;;;;;;18.50;10.65;;;;;;;15.46;46.47;100234.94;7677193;32;40170;-85
2023/01/07 11:30:40;;;;;;;21.08;11.65;;;;;;;16.12;47.14;100226.91;7683756;32;40758;-79
2023/01/07 11:34:58;;;;;;;22.65;11.88;;;;;;;15.87;45.91;100223.44;7670038;32;38052;-85
2023/01/07 11:39:24;;;;;;;22.15;12.20;;;;;;;15.63;46.65;100219.91;7669335;32;36221;-86
2023/01/07 11:43:46;;;;;;;18.33;11.43;;;;;;;15.80;46.49;100213.91;7683461;32;40017;-85
2023/01/07 11:48:07;;;;;;;16.87;10.57;;;;;;;15.79;46.38;100217.78;7670501;32;39995;-85
2023/01/07 11:52:23;;;;;;;15.65;9.80;;;;;;;16.30;44.68;100201.31;7683181;32;38366;-85
2023/01/07 11:56:40;;;;;;;19.55;9.70;;;;;;;16.74;43.73;100199.19;7669416;32;37893;-86
2023/01/07 12:01:11;;;;;;;18.37;9.45;;;;;;;16.44;44.74;100195.88;7669705;32;40169;-87
2023/01/07 12:05:30;;;;;;;15.27;8.63;;;;;;;16.47;44.35;100192.53;7683112;32;40530;-87
2023/01/07 12:09:46;;;;;;;13.93;8.20;;;;;;;16.57;43.47;100187.94;7669407;32;37961;-87
2023/01/07 12:14:15;;;;;;;15.35;8.07;;;;;;;17.49;42.56;100179.84;7690495;32;37241;-87
2023/01/07 12:18:54;;;;;;;17.00;7.78;;;;;;;17.44;41.41;100178.03;7708944;32;39560;-86
2023/01/07 12:23:25;;;;;;;16.27;8.52;;;;;;;17.83;41.76;100171.94;7711595;32;40052;-87
2023/01/07 12:28:11;;;;;;;14.75;7.35;;;;;;;18.32;41.39;100168.59;7710228;32;37675;-87
2023/01/07 12:32:48;;;;;;;15.77;8.52;;;;;;;18.75;40.46;100162.50;7708187;32;37901;-86
2023/01/07 12:37:18;;;;;;;13.68;8.13;;;;;;;19.14;38.24;100147.91;7707880;32;39374;-85
2023/01/07 12:41:41;;;;;;;17.23;8.43;;;;;;;18.73;38.31;100150.94;7694441;32;40890;-85
2023/01/07 12:46:01;;;;;;;18.85;9.18;;;;;;;18.18;39.26;100146.59;7707008;32;38091;-87
2023/01/07 12:50:29;;;;;;;21.00;10.00;;;;;;;18.00;40.55;100157.47;7696239;32;37168;-86
2023/01/07 12:55:01;;;;;;;17.83;9.85;;;;;;;18.20;40.11;100133.28;7698460;32;39269;-86
2023/01/07 12:59:25;;;;;;;20.70;9.75;;;;;;;18.05;40.30;100142.75;7699376;32;39927;-86
2023/01/07 13:04:16;;;;;;;22.45;11.27;;;;;;;18.50;40.19;100137.19;7701336;32;38242;-87
2023/01/07 13:08:49;;;;;;;18.00;10.55;;;;;;;18.39;39.74;100136.66;7711630;32;37186;-86
2023/01/07 13:13:30;;;;;;;25.42;15.07;;;;;;;18.45;39.29;100133.75;7711431;32;39015;-87
2023/01/07 13:17:54;;;;;;;18.37;11.00;;;;;;;18.81;38.86;100122.56;7701078;32;39985;-87
2023/01/07 13:22:38;;;;;;;19.27;11.55;;;;;;;18.95;38.54;100114.19;7711237;32;38797;-87
2023/01/07 13:27:38;;;;;;;19.90;11.38;;;;;;;19.06;38.22;100117.47;7711954;32;37926;-87
2023/01/07 13:32:15;;;;;;;17.67;10.43;;;;;;;19.26;37.38;100113.28;7657082;32;40065;-87
2023/01/07 13:36:52;;;;;;;20.73;10.60;;;;;;;19.04;37.27;100114.22;7699639;32;40800;-87
2023/01/07 13:41:36;;;;;;;15.30;8.02;;;;;;;19.98;35.93;100111.87;7711455;32;38792;-86
2023/01/07 13:46:01;;;;;;;12.37;6.10;;;;;;;21.62;32.30;100099.62;7711654;32;38099;-87
2023/01/07 13:50:23;;;;;;;17.58;8.70;;;;;;;25.06;27.00;100080.75;7711679;32;40215;-87
2023/01/07 13:54:49;;;;;;;14.23;8.02;;;;;;;27.30;23.04;100075.41;7697680;32;39591;-87
2023/01/07 13:59:29;;;;;;;12.30;7.55;;;;;;;28.98;20.66;100075.59;7710977;32;38785;-87
2023/01/07 14:04:07;;;;;;;12.23;6.95;;;;;;;29.39;20.01;100074.66;7710942;32;37677;-87
2023/01/07 14:08:27;;;;;;;13.05;6.40;;;;;;;29.49;19.54;100081.50;7711615;32;40130;-78
2023/01/07 14:12:53;;;;;;;11.75;6.18;;;;;;;27.56;21.67;100086.94;7697719;32;40012;-87
2023/01/07 14:17:34;;;;;;;22.37;14.27;;;;;;;26.28;23.19;100098.47;7711587;32;37607;-86
2023/01/07 14:22:15;;;;;;;9.32;5.47;;;;;;;24.36;25.50;100104.47;7711544;32;38050;-86
2023/01/07 14:26:59;;;;;;;8.50;4.65;;;;;;;25.29;24.20;100096.81;7711374;32;40121;-87
2023/01/07 14:31:35;;;;;;;12.95;6.03;;;;;;;25.13;24.52;100096.84;7685981;32;39499;-87
2023/01/07 14:36:00;;;;;;;22.92;13.77;;;;;;;23.01;27.49;100102.88;7711037;32;38051;-87
2023/01/07 14:40:25;;;;;;;30.75;16.62;;;;;;;21.75;30.02;100101.31;7711213;32;37311;-86
2023/01/07 14:44:42;;;;;;;21.60;13.25;;;;;;;20.01;33.15;100104.91;7707655;32;39003;-86
2023/01/07 14:49:01;;;;;;;23.30;13.10;;;;;;;19.07;35.15;100110.81;7708529;32;40817;-87
2023/01/07 14:53:42;;;;;;;216.57;114.50;;;;;;;18.22;37.34;100119.19;7702023;32;37735;-87
2023/01/07 14:58:22;;;;;;;53.30;29.50;;;;;;;17.40;38.98;100122.72;7699518;32;37439;-87
2023/01/07 15:03:06;;;;;;;59.45;35.03;;;;;;;16.68;41.18;100123.34;7698973;32;39495;-88
2023/01/07 15:07:26;;;;;;;22.17;12.50;;;;;;;16.23;42.16;100121.13;7697898;32;39990;-87
2023/01/07 15:16:21;;;;;;;20.73;10.68;;;;;;;15.06;45.24;100129.16;7696554;32;37148;-84
2023/01/07 15:21:07;;;;;;;18.65;8.57;;;;;;;14.56;46.69;100127.47;7691532;32;39307;-86
2023/01/07 15:25:31;;;;;;;15.65;8.18;;;;;;;14.28;47.06;100143.62;7704518;32;40824;-85
2023/01/07 15:30:07;;;;;;;15.68;8.50;;;;;;;13.98;47.82;100143.88;7708801;32;37807;-86
2023/01/07 15:34:28;;;;;;;15.38;8.35;;;;;;;13.43;49.05;100149.44;7708297;32;35777;-86
2023/01/07 15:38:55;;;;;;;17.05;9.95;;;;;;;13.22;49.69;100151.44;7696738;32;39310;-85
2023/01/07 15:43:20;;;;;;;20.50;10.70;;;;;;;12.84;50.67;100149.09;7687648;32;39421;-86
2023/01/07 15:47:40;;;;;;;16.37;10.10;;;;;;;12.29;51.92;100148.91;7697318;32;37944;-87
2023/01/07 15:51:59;;;;;;;19.45;10.20;;;;;;;12.23;52.18;100155.50;7696393;32;38584;-85
2023/01/07 15:56:19;;;;;;;19.62;10.13;;;;;;;11.83;53.62;100146.13;7708923;32;40063;-83
2023/01/07 16:00:35;;;;;;;21.05;10.98;;;;;;;11.75;53.65;100143.97;7709691;32;39917;-86
2023/01/07 16:04:59;;;;;;;24.17;12.20;;;;;;;11.68;53.77;100148.87;7709638;32;37414;-87
2023/01/07 16:09:17;;;;;;;21.50;11.70;;;;;;;11.68;53.41;100148.87;7696780;32;36956;-86
2023/01/07 16:13:34;;;;;;;17.55;10.23;;;;;;;11.64;53.19;100137.62;7696092;32;40889;-86
2023/01/07 16:17:56;;;;;;;19.90;10.50;;;;;;;11.32;53.96;100143.31;7706889;32;39826;-87
2023/01/07 16:22:15;;;;;;;21.42;11.57;;;;;;;11.02;55.29;100140.19;7707567;32;39208;-84
2023/01/07 16:26:45;;;;;;;21.23;12.60;;;;;;;11.10;54.99;100144.31;7708345;32;36457;-86
2023/01/07 16:31:06;;;;;;;27.75;13.68;;;;;;;10.70;56.25;100153.94;7699863;32;39004;-85
2023/01/07 16:35:32;;;;;;;29.50;14.25;;;;;;;10.76;56.27;100152.87;7711669;32;40448;-85
2023/01/07 16:39:50;;;;;;;26.05;14.77;;;;;;;10.43;57.50;100151.31;7698661;32;38845;-85
2023/01/07 16:44:26;;;;;;;31.50;16.60;;;;;;;10.39;57.76;100159.19;7712344;32;37300;-84
2023/01/07 16:48:43;;;;;;;28.95;16.77;;;;;;;10.07;58.87;100170.91;7711058;32;39551;-85
2023/01/07 16:53:00;;;;;;;30.23;16.62;;;;;;;10.47;57.04;100163.34;7712417;32;40031;-83
2023/01/07 16:57:33;;;;;;;32.67;17.35;;;;;;;9.92;58.37;100171.56;7712503;32;37719;-83
2023/01/07 17:01:50;;;;;;;31.90;17.65;;;;;;;9.75;58.63;100174.41;7698864;32;38161;-84
2023/01/07 17:06:07;;;;;;;33.25;18.55;;;;;;;9.17;60.60;100179.47;7697293;32;40065;-83
2023/01/07 17:10:27;;;;;;;35.47;18.05;;;;;;;9.19;60.31;100176.47;7698266;32;39527;-84
2023/01/07 17:14:45;;;;;;;34.22;17.83;;;;;;;8.59;62.58;100189.00;7711191;32;39273;-83
2023/01/07 17:19:26;;;;;;;40.12;18.75;;;;;;;8.82;61.71;100174.38;7711120;32;37298;-83
2023/01/07 17:23:44;;;;;;;37.10;18.25;;;;;;;8.64;62.16;100176.31;7704346;32;39379;-84
2023/01/07 17:28:07;;;;;;;38.95;18.05;;;;;;;8.50;62.85;100175.00;7702094;32;40108;-83
2023/01/07 17:32:23;;;;;;;35.03;17.77;;;;;;;8.07;64.02;100181.88;7697982;32;38099;-82
2023/01/07 17:36:41;;;;;;;35.58;18.35;;;;;;;7.90;65.06;100188.12;7693806;32;36279;-84
2023/01/07 17:40:58;;;;;;;34.10;17.83;;;;;;;7.92;65.29;100195.19;7711359;32;39175;-84
2023/01/07 17:45:16;;;;;;;39.33;17.55;;;;;;;7.01;68.06;100196.69;7711650;32;39898;-84
2023/01/07 17:49:32;;;;;;;44.90;17.45;;;;;;;7.42;67.25;100194.81;7697331;32;36728;-84
2023/01/07 17:53:51;;;;;;;35.72;17.02;;;;;;;7.06;68.64;100194.09;7711027;32;37451;-85
2023/01/07 17:58:23;;;;;;;35.28;18.15;;;;;;;6.97;69.00;100195.53;7698081;32;39829;-85
2023/01/07 18:02:42;;;;;;;40.12;17.70;;;;;;;6.92;69.49;100192.72;7698970;32;39909;-84
2023/01/07 18:06:58;;;;;;;33.65;17.20;;;;;;;6.88;69.75;100186.94;7711065;32;37978;-84
2023/01/07 18:16:01;;;;;;;34.70;17.75;;;;;;;7.11;69.10;100196.91;7700505;32;39322;-84
2023/01/07 18:20:19;;;;;;;35.00;17.33;;;;;;;7.11;69.08;100205.03;7709460;32;40587;-83
2023/01/07 18:24:36;;;;;;;39.13;18.70;;;;;;;7.12;69.31;100209.41;7710867;32;36769;-84
2023/01/07 18:28:53;;;;;;;35.88;18.20;;;;;;;7.10;69.74;100211.50;7710319;32;37141;-84
2023/01/07 18:33:10;;;;;;;34.03;18.80;;;;;;;7.26;69.10;100209.97;7709902;32;40146;-84
2023/01/07 18:37:26;;;;;;;31.30;16.02;;;;;;;7.31;68.75;100217.38;7696423;32;39672;-83
2023/01/07 18:41:42;;;;;;;37.03;17.87;;;;;;;7.34;68.82;100211.47;7708106;32;38105;-84
2023/01/07 18:45:59;;;;;;;38.03;17.48;;;;;;;7.37;68.74;100210.19;7700240;32;38085;-84
2023/01/07 18:50:16;;;;;;;30.12;16.85;;;;;;;7.52;68.00;100207.78;7709962;32;39365;-83
2023/01/07 18:54:32;;;;;;;33.95;17.65;;;;;;;7.55;68.07;100209.16;7710294;32;40597;-84
2023/01/07 18:58:52;;;;;;;35.33;18.52;;;;;;;7.25;69.56;100207.50;7693404;32;38745;-83
2023/01/07 19:03:10;;;;;;;32.92;16.80;;;;;;;7.25;69.52;100197.47;7709825;32;37916;-83
2023/01/07 19:07:28;;;;;;;36.17;18.15;;;;;;;7.29;69.11;100200.53;7710147;32;38980;-84
2023/01/07 19:11:44;;;;;;;37.42;17.75;;;;;;;7.43;68.33;100193.75;7709987;32;39151;-83
2023/01/07 19:16:09;;;;;;;39.08;19.37;;;;;;;7.50;68.23;100194.44;7702815;32;38754;-82
2023/01/07 19:20:25;;;;;;;35.55;18.02;;;;;;;7.16;69.78;100198.91;7707412;32;37495;-81
2023/01/07 19:24:42;;;;;;;35.35;18.48;;;;;;;7.62;68.28;100201.72;7701436;32;39005;-82
2023/01/07 19:28:59;;;;;;;36.25;18.92;;;;;;;7.69;68.05;100191.53;7708946;32;39879;-82
2023/01/07 19:33:18;;;;;;;41.20;17.58;;;;;;;7.88;67.50;100203.00;7709823;32;40030;-83
2023/01/07 19:37:36;;;;;;;33.13;16.83;;;;;;;7.40;69.18;100188.81;7709905;32;37658;-83
2023/01/07 19:41:53;;;;;;;31.90;17.20;;;;;;;7.98;67.02;100194.22;7695530;32;38866;-82
2023/01/07 19:46:10;;;;;;;37.20;18.15;;;;;;;7.97;67.14;100195.28;7708809;32;39987;-84
2023/01/07 19:50:27;;;;;;;48.72;21.90;;;;;;;7.72;67.56;100208.16;7706050;32;37884;-85
2023/01/07 19:54:45;;;;;;;43.05;21.00;;;;;;;7.46;69.20;100195.16;7703501;32;38037;-85
2023/01/07 19:59:02;;;;;;;38.85;18.55;;;;;;;7.67;68.29;100199.91;7698908;32;39023;-85
2023/01/07 20:03:18;;;;;;;36.17;19.08;;;;;;;7.60;68.87;100198.41;7689724;32;38945;-86
2023/01/07 20:07:35;;;;;;;43.97;17.87;;;;;;;7.71;67.94;100192.13;7699623;32;37977;-85
2023/01/07 20:11:51;;;;;;;36.75;17.67;;;;;;;7.89;67.59;100189.19;7700975;32;38147;-85
2023/01/07 20:16:10;;;;;;;33.28;17.50;;;;;;;7.80;67.46;100187.94;7702556;32;37287;-84
2023/01/07 20:20:27;;;;;;;38.88;17.37;;;;;;;7.83;67.98;100187.47;7703440;32;39927;-85
2023/01/07 20:24:45;;;;;;;36.97;18.08;;;;;;;8.04;66.91;100185.13;7707414;32;38045;-85